This is the latest recevied weather packets stored in our database for station/object N3TJJ-2. If no packets are shown the sender has not sent any weather packets the latest 10 day(s).
| Time | Temp. | Humidity | Pressure | Rain* | Wind** | Luminosity | Snow |
|---|---|---|---|---|---|---|---|
| 1788366649 | 22.78° C | 61% | 1021.7 hPa | 0 mm | - | - | - |
| 1788366290 | 22.78° C | 63% | 1021.6 hPa | 0 mm | - | - | - |
| 1788365952 | 22.78° C | 64% | 1021.2 hPa | 0 mm | - | - | - |
| 1788365692 | 23.33° C | 64% | 1021.2 hPa | 0 mm | - | - | - |
| 1788365210 | 23.33° C | 64% | 1021.1 hPa | 0 mm | - | - | - |
| 1788364849 | 23.89° C | 66% | 1020.8 hPa | 0 mm | - | - | - |
| 1788364488 | 23.89° C | 68% | 1020.9 hPa | 0 mm | - | - | - |
| 1788364136 | 24.44° C | 69% | 1021 hPa | 0 mm | - | - | - |
| 1788363769 | 24.44° C | 70% | 1020.8 hPa | 0 mm | - | - | - |
| 1788363457 | 24.44° C | 69% | 1020.3 hPa | 0 mm | - | - | - |
| 1788362701 | 23.89° C | 68% | 1020.3 hPa | 0 mm | - | - | - |
| 1788362340 | 24.44° C | 69% | 1020.4 hPa | 0 mm | - | - | - |
| 1788361969 | 24.44° C | 68% | 1020.6 hPa | 0 mm | - | - | - |
| 1788361608 | 23.89° C | 64% | 1020.5 hPa | 0 mm | - | - | - |
| 1788361300 | 22.22° C | 57% | 1020.9 hPa | 0 mm | - | - | - |
| 1788359454 | 22.22° C | 57% | 1020.9 hPa | 0 mm | - | - | - |
| 1788359100 | 22.22° C | 56% | 1020.8 hPa | 0 mm | - | - | - |
| 1788358738 | 22.78° C | 57% | 1020.8 hPa | 0 mm | - | - | - |
| 1788358368 | 22.78° C | 57% | 1020.9 hPa | 0 mm | - | - | - |
| 1788358254 | 22.78° C | 56% | 1021 hPa | 0 mm | - | - | - |
| 1788357649 | 22.78° C | 55% | 1020.9 hPa | 0 mm | - | - | - |
| 1788357288 | 22.22° C | 52% | 1021.1 hPa | 0 mm | - | - | - |
| 1788357268 | 22.22° C | 51% | 1021.2 hPa | 0 mm | - | - | - |
| 1788356616 | 22.22° C | 52% | 1021 hPa | 0 mm | - | - | - |
| 1788356250 | 22.22° C | 52% | 1020.7 hPa | 0 mm | - | - | - |
* Rain latest hour (hover to see other rain measurements)
** Current wind speed in m/s (hover to see current wind gust speed)